Time;durP1;ratioP1;P1;durP2;ratioP2;P2;SDS_P1;SDS_P2;PMS_P1;PMS_P2;Temp;Humidity;BMP_temperature;BMP_pressure;BME280_temperature;BME280_humidity;BME280_pressure;Samples;Min_cycle;Max_cycle;Signal;HPM_P1;HPM_P2
2022/01/12 00:01:14;;;;;;;23.73;14.35;;;;;;;-144.47;100.00;61586.06;5040175;28;20038;-75
2022/01/12 00:03:43;;;;;;;25.05;16.42;;;;;;;-144.47;100.00;61586.06;5039871;28;20365;-75
2022/01/12 00:06:08;;;;;;;22.20;14.60;;;;;;;-144.47;100.00;61586.06;5029963;28;20033;-75
2022/01/12 00:08:34;;;;;;;21.98;14.88;;;;;;;-144.47;100.00;61586.06;5011758;28;20090;-75
2022/01/12 00:11:02;;;;;;;23.83;15.52;;;;;;;-144.47;100.00;61586.06;5038072;28;20064;-75
2022/01/12 00:13:28;;;;;;;23.80;14.73;;;;;;;-144.47;100.00;61586.06;5037866;28;20029;-76
2022/01/12 00:15:54;;;;;;;18.92;14.40;;;;;;;-144.47;100.00;61586.06;5041682;28;20040;-75
2022/01/12 00:18:20;;;;;;;23.60;15.05;;;;;;;-144.47;100.00;61586.06;5020701;28;20042;-74
2022/01/12 00:20:47;;;;;;;23.08;13.98;;;;;;;-144.47;100.00;61586.06;5029964;28;20057;-76
2022/01/12 00:23:14;;;;;;;18.88;13.95;;;;;;;-144.47;100.00;61586.06;5022384;28;20513;-74
2022/01/12 00:26:03;;;;;;;19.58;13.70;;;;;;;-144.47;100.00;61586.06;5039478;28;20111;-75
2022/01/12 00:34:05;;;;;;;16.42;13.52;;;;;;;-144.47;100.00;61586.06;5038452;28;20699;-74
2022/01/12 00:36:31;;;;;;;23.70;16.17;;;;;;;-144.47;100.00;61586.06;5026971;28;20132;-75
2022/01/12 00:38:58;;;;;;;20.58;13.65;;;;;;;-144.47;100.00;61586.06;5015786;28;20121;-76
2022/01/12 00:41:24;;;;;;;20.73;13.50;;;;;;;-144.47;100.00;61586.06;5036881;28;20037;-76
2022/01/12 00:43:57;;;;;;;21.67;13.80;;;;;;;-144.47;100.00;61586.06;5036010;28;20090;-74
2022/01/12 00:46:24;;;;;;;20.08;14.10;;;;;;;-144.47;100.00;61586.06;5023470;28;20140;-75
2022/01/12 00:48:52;;;;;;;25.85;14.95;;;;;;;-144.47;100.00;61586.06;5033225;28;20076;-75
2022/01/12 00:51:17;;;;;;;23.65;14.95;;;;;;;-144.47;100.00;61586.06;5025765;28;20093;-76
2022/01/12 00:53:43;;;;;;;20.25;13.95;;;;;;;-144.47;100.00;61586.06;5042984;28;20033;-76
2022/01/12 00:56:08;;;;;;;22.95;14.30;;;;;;;-144.47;100.00;61586.06;5032883;28;20037;-76
2022/01/12 00:58:35;;;;;;;21.42;14.27;;;;;;;-144.47;100.00;61586.06;5041838;28;20041;-75
2022/01/12 01:01:03;;;;;;;22.30;14.25;;;;;;;-144.47;100.00;61586.06;5044306;28;20045;-74
2022/01/12 01:03:29;;;;;;;19.50;14.00;;;;;;;-144.47;100.00;61586.06;5040598;28;20048;-76
2022/01/12 01:05:57;;;;;;;21.17;13.43;;;;;;;-144.47;100.00;61586.06;5019562;28;20041;-75
2022/01/12 01:08:24;;;;;;;20.98;14.73;;;;;;;-144.47;100.00;61586.06;5027023;28;20032;-74
2022/01/12 01:10:51;;;;;;;24.85;16.60;;;;;;;-144.47;100.00;61586.06;5041567;28;20041;-75
2022/01/12 01:13:25;;;;;;;26.13;14.25;;;;;;;-144.47;100.00;61586.06;5015708;28;20033;-75
2022/01/12 01:26:57;;;;;;;20.65;14.63;;;;;;;-144.47;100.00;61586.06;5023873;28;20060;-76
2022/01/12 01:29:26;;;;;;;;;;;;;;;-144.47;100.00;61586.06;5023407;28;20393;-75
2022/01/12 01:31:51;;;;;;;22.70;14.18;;;;;;;-144.47;100.00;61586.06;5026376;28;19921;-76
2022/01/12 01:34:17;;;;;;;21.23;15.23;;;;;;;-144.47;100.00;61586.06;5017039;28;20069;-77
2022/01/12 01:36:47;;;;;;;21.98;14.77;;;;;;;-144.47;100.00;61586.06;5014857;28;20029;-75
2022/01/12 01:39:17;;;;;;;21.58;14.68;;;;;;;-144.47;100.00;61586.06;5025077;28;20768;-75
2022/01/12 01:41:51;;;;;;;22.70;15.63;;;;;;;-144.47;100.00;61586.06;5042182;28;20059;-76
2022/01/12 01:53:18;;;;;;;24.25;15.45;;;;;;;-144.47;100.00;61586.06;5018629;28;20025;-74
2022/01/12 01:55:09;;;;;;;21.75;15.23;;;;;;;-144.47;100.00;61586.06;5018374;28;20045;-75
2022/01/12 01:57:35;;;;;;;24.23;15.20;;;;;;;-144.47;100.00;61586.06;5041801;28;20082;-74
2022/01/12 02:00:09;;;;;;;23.13;14.88;;;;;;;-144.47;100.00;61586.06;5015415;28;20061;-75
2022/01/12 02:02:53;;;;;;;24.08;15.10;;;;;;;-144.47;100.00;61586.06;5045542;28;20124;-75
2022/01/12 02:05:21;;;;;;;21.98;15.50;;;;;;;-144.47;100.00;61586.06;5040821;28;20056;-74
2022/01/12 02:07:46;;;;;;;24.42;15.70;;;;;;;-144.47;100.00;61586.06;5040134;28;20386;-75
2022/01/12 02:10:14;;;;;;;24.88;15.55;;;;;;;-144.47;100.00;61586.06;5030947;28;20045;-76
2022/01/12 02:12:44;;;;;;;29.20;16.80;;;;;;;-144.47;100.00;61586.06;5040597;28;20025;-75
2022/01/12 02:15:18;;;;;;;28.58;17.05;;;;;;;-144.47;100.00;61586.06;5024446;28;20409;-76
2022/01/12 02:18:00;;;;;;;28.02;17.80;;;;;;;-144.47;100.00;61586.06;5040584;28;20064;-75
2022/01/12 02:42:18;;;;;;;25.67;16.60;;;;;;;-144.47;100.00;61586.06;5038595;28;20037;-74
2022/01/12 02:55:43;;;;;;;22.27;16.05;;;;;;;-144.47;100.00;61586.06;5038606;28;20026;-74
2022/01/12 02:58:10;;;;;;;23.45;16.48;;;;;;;-144.47;100.00;61586.06;5039483;28;20608;-75
2022/01/12 03:00:57;;;;;;;22.98;15.98;;;;;;;-144.47;100.00;61586.06;5030044;28;20052;-75
2022/01/12 03:03:23;;;;;;;24.17;17.42;;;;;;;-144.47;100.00;61586.06;5029928;28;20052;-75
2022/01/12 03:05:58;;;;;;;23.92;16.75;;;;;;;-144.47;100.00;61586.06;5040761;28;20091;-76
2022/01/12 03:08:26;;;;;;;25.27;16.95;;;;;;;-144.47;100.00;61586.06;5037890;28;20447;-75
2022/01/12 03:10:52;;;;;;;27.77;17.75;;;;;;;-144.47;100.00;61586.06;5012292;28;20038;-75
2022/01/12 03:13:18;;;;;;;21.52;16.20;;;;;;;-144.47;100.00;61586.06;5012227;28;20033;-75
2022/01/12 03:15:47;;;;;;;27.38;16.92;;;;;;;-144.47;100.00;61586.06;5040429;28;20025;-75
2022/01/12 03:18:15;;;;;;;;;;;;;;;-144.47;100.00;61586.06;5022354;28;20455;-75
2022/01/12 03:20:41;;;;;;;25.85;16.27;;;;;;;-144.47;100.00;61586.06;5028356;28;20015;-75
2022/01/12 03:23:07;;;;;;;26.58;15.93;;;;;;;-144.47;100.00;61586.06;4995122;28;20128;-76
2022/01/12 03:25:33;;;;;;;20.90;15.48;;;;;;;-144.47;100.00;61586.06;5020749;28;20456;-75
2022/01/12 03:28:01;;;;;;;24.40;16.58;;;;;;;-144.47;100.00;61586.06;5024001;28;20021;-75
2022/01/12 03:30:34;;;;;;;26.77;16.40;;;;;;;-144.47;100.00;61586.06;5020328;28;20037;-75
2022/01/12 03:33:18;;;;;;;24.38;15.82;;;;;;;-144.47;100.00;61586.06;5035047;28;20033;-75
2022/01/12 03:35:51;;;;;;;24.63;16.88;;;;;;;-144.47;100.00;61586.06;5021660;28;20029;-75
2022/01/12 03:38:20;;;;;;;25.23;16.00;;;;;;;-144.47;100.00;61586.06;5011843;28;20347;-75
2022/01/12 03:40:49;;;;;;;27.65;16.67;;;;;;;-144.47;100.00;61586.06;5004958;28;20026;-75
2022/01/12 03:43:17;;;;;;;18.77;15.13;;;;;;;-144.47;100.00;61586.06;5021151;28;20421;-75
2022/01/12 03:45:45;;;;;;;27.45;16.58;;;;;;;-144.47;100.00;61586.06;5022096;28;20030;-76
2022/01/12 03:48:11;;;;;;;26.23;15.75;;;;;;;-144.47;100.00;61586.06;5024842;28;20036;-76
2022/01/12 03:50:37;;;;;;;26.10;15.70;;;;;;;-144.47;100.00;61586.06;5011844;28;20881;-76
2022/01/12 03:53:03;;;;;;;21.13;15.93;;;;;;;-144.47;100.00;61586.06;5020431;28;20037;-74
2022/01/12 03:55:29;;;;;;;24.17;15.38;;;;;;;-144.47;100.00;61586.06;5023221;28;20362;-76
2022/01/12 03:57:54;;;;;;;23.70;14.95;;;;;;;-144.47;100.00;61586.06;5016144;28;20052;-75
2022/01/12 04:00:20;;;;;;;23.35;15.32;;;;;;;-144.47;100.00;61586.06;5022438;28;20033;-75
2022/01/12 04:02:46;;;;;;;20.05;14.70;;;;;;;-144.47;100.00;61586.06;5039003;28;20448;-76
2022/01/12 04:10:36;;;;;;;21.80;15.65;;;;;;;-144.47;100.00;61586.06;5040947;28;20038;-75
2022/01/12 04:13:02;;;;;;;24.02;15.68;;;;;;;-144.47;100.00;61586.06;5043462;28;20505;-75
2022/01/12 04:15:28;;;;;;;29.10;16.63;;;;;;;-144.47;100.00;61586.06;5040127;28;20492;-75
2022/01/12 04:17:54;;;;;;;27.95;16.85;;;;;;;-144.47;100.00;61586.06;5043858;28;20063;-75
2022/01/12 04:20:20;;;;;;;26.98;16.52;;;;;;;-144.47;100.00;61586.06;5040637;28;20075;-76
2022/01/12 04:25:31;;;;;;;30.60;16.38;;;;;;;-144.47;100.00;61586.06;5038002;28;20080;-75
2022/01/12 04:27:56;;;;;;;24.40;17.10;;;;;;;-144.47;100.00;61586.06;5036679;28;20029;-75
2022/01/12 04:30:22;;;;;;;25.90;17.42;;;;;;;-144.47;100.00;61586.06;5033258;28;20079;-75
2022/01/12 04:32:48;;;;;;;26.70;18.13;;;;;;;-144.47;100.00;61586.06;5044172;28;20030;-75
2022/01/12 04:35:15;;;;;;;23.45;17.13;;;;;;;-144.47;100.00;61586.06;5042750;28;20056;-75
2022/01/12 04:37:41;;;;;;;26.65;17.48;;;;;;;-144.47;100.00;61586.06;5031811;28;20037;-75
2022/01/12 04:40:07;;;;;;;23.45;18.02;;;;;;;-144.47;100.00;61586.06;5033120;28;20040;-76
2022/01/12 04:42:35;;;;;;;26.42;17.75;;;;;;;-144.47;100.00;61586.06;5040955;28;20083;-75
2022/01/12 04:45:17;;;;;;;24.40;18.25;;;;;;;-144.47;100.00;61586.06;5044101;28;20025;-75
2022/01/12 04:50:23;;;;;;;26.60;18.55;;;;;;;-144.47;100.00;61586.06;5031023;28;20034;-75
2022/01/12 04:52:50;;;;;;;26.88;18.05;;;;;;;-144.47;100.00;61586.06;5042492;28;20026;-75
2022/01/12 04:55:16;;;;;;;26.45;17.48;;;;;;;-144.47;100.00;61586.06;5041998;28;20033;-74
2022/01/12 04:57:41;;;;;;;24.38;16.42;;;;;;;-144.47;100.00;61586.06;5040914;28;20033;-74
2022/01/12 05:00:16;;;;;;;25.30;16.35;;;;;;;-144.47;100.00;61586.06;5042083;28;20155;-76
2022/01/12 05:13:41;;;;;;;25.90;17.27;;;;;;;-144.47;100.00;61586.06;5036202;28;20040;-76
2022/01/12 05:16:12;;;;;;;22.15;16.48;;;;;;;-144.47;100.00;61586.06;5043454;28;20056;-76
2022/01/12 05:18:41;;;;;;;29.30;17.27;;;;;;;-144.47;100.00;61586.06;5040354;28;20064;-76
2022/01/12 05:21:08;;;;;;;28.08;16.98;;;;;;;-144.47;100.00;61586.06;5042029;28;20051;-76
2022/01/12 05:23:34;;;;;;;21.15;16.00;;;;;;;-144.47;100.00;61586.06;5031163;28;20499;-74
2022/01/12 05:26:01;;;;;;;22.73;16.45;;;;;;;-144.47;100.00;61586.06;5031240;28;20063;-74
2022/01/12 05:28:28;;;;;;;25.20;16.52;;;;;;;-144.47;100.00;61586.06;5052237;28;20033;-74
2022/01/12 05:30:56;;;;;;;23.15;16.85;;;;;;;-144.47;100.00;61586.06;5044533;28;20037;-76
2022/01/12 05:33:24;;;;;;;23.40;16.58;;;;;;;-144.47;100.00;61586.06;5044282;28;20029;-77
2022/01/12 05:35:51;;;;;;;24.92;16.90;;;;;;;-144.47;100.00;61586.06;5037621;28;20706;-78
2022/01/12 05:38:17;;;;;;;22.13;16.48;;;;;;;-144.47;100.00;61586.06;5044459;28;20033;-75
2022/01/12 05:40:47;;;;;;;24.08;16.60;;;;;;;-144.47;100.00;61586.06;5045358;28;20028;-77
2022/01/12 05:43:20;;;;;;;24.75;17.27;;;;;;;-144.47;100.00;61586.06;5031352;28;20037;-74
2022/01/12 05:45:46;;;;;;;;;;;;;;;-144.47;100.00;61586.06;5039675;28;20418;-75
2022/01/12 05:50:41;;;;;;;22.50;15.07;;;;;;;-144.47;100.00;61586.06;5030902;28;20092;-76
2022/01/12 05:53:14;;;;;;;24.63;16.08;;;;;;;-144.47;100.00;61586.06;5041374;28;20508;-75
2022/01/12 05:55:43;;;;;;;25.20;15.73;;;;;;;-144.47;100.00;61586.06;5040959;28;20537;-74
2022/01/12 05:58:09;;;;;;;20.60;15.07;;;;;;;-144.47;100.00;61586.06;5041332;28;20052;-75
2022/01/12 06:00:36;;;;;;;25.08;15.80;;;;;;;-144.47;100.00;61586.06;5050668;28;20037;-76
2022/01/12 06:03:03;;;;;;;20.48;15.85;;;;;;;-144.47;100.00;61586.06;5043421;28;20511;-78
2022/01/12 06:05:28;;;;;;;23.90;15.55;;;;;;;-144.47;100.00;61586.06;5030461;28;20056;-79
2022/01/12 06:07:56;;;;;;;22.92;15.95;;;;;;;-144.47;100.00;61586.06;5031940;28;20394;-80
2022/01/12 06:10:23;;;;;;;23.08;15.98;;;;;;;-144.47;100.00;61586.06;5040754;28;20042;-81
2022/01/12 06:12:52;;;;;;;23.65;15.38;;;;;;;-144.47;100.00;61586.06;5041964;28;20045;-79
2022/01/12 06:15:20;;;;;;;25.80;15.70;;;;;;;-144.47;100.00;61586.06;5039876;28;20033;-80
2022/01/12 06:17:47;;;;;;;22.17;15.25;;;;;;;-144.47;100.00;61586.06;5030421;28;20029;-82
2022/01/12 06:20:14;;;;;;;22.25;15.02;;;;;;;-144.47;100.00;61586.06;5040735;28;20033;-79
2022/01/12 06:23:03;;;;;;;22.05;16.38;;;;;;;-144.47;100.00;61586.06;5036405;28;20033;-79
2022/01/12 06:25:31;;;;;;;21.77;16.30;;;;;;;-144.47;100.00;61586.06;5039789;28;20485;-78
2022/01/12 06:28:09;;;;;;;22.08;16.85;;;;;;;-144.47;100.00;61586.06;5040732;28;20075;-81
2022/01/12 06:33:19;;;;;;;25.05;16.63;;;;;;;-144.47;100.00;61586.06;5039691;28;20088;-83
2022/01/12 06:35:45;;;;;;;24.05;17.70;;;;;;;-144.47;100.00;61586.06;5043472;28;20470;-82
2022/01/12 06:38:10;;;;;;;31.17;16.98;;;;;;;-144.47;100.00;61586.06;5043994;28;20029;-81
2022/01/12 06:40:36;;;;;;;22.17;15.80;;;;;;;-144.47;100.00;61586.06;4339903;28;10000713;-84
2022/01/12 06:43:02;;;;;;;28.73;16.75;;;;;;;-144.47;100.00;61586.06;5039954;28;20029;-84
2022/01/12 06:45:28;;;;;;;23.48;17.30;;;;;;;-144.47;100.00;61586.06;5046337;28;20155;-84
2022/01/12 06:47:54;;;;;;;23.73;16.40;;;;;;;-144.47;100.00;61586.06;5041436;28;20037;-83
2022/01/12 06:50:20;;;;;;;28.30;17.00;;;;;;;-144.47;100.00;61586.06;5036924;28;20096;-84
2022/01/12 06:52:46;;;;;;;25.30;16.73;;;;;;;-144.47;100.00;61586.06;5040779;28;20041;-83
2022/01/12 06:55:12;;;;;;;24.70;17.95;;;;;;;-144.47;100.00;61586.06;5039331;28;20029;-84
2022/01/12 06:57:39;;;;;;;25.15;18.40;;;;;;;-144.47;100.00;61586.06;5039302;28;20025;-85
2022/01/12 07:00:06;;;;;;;25.83;16.30;;;;;;;-144.47;100.00;61586.06;5040630;28;20037;-87
2022/01/12 07:02:32;;;;;;;29.05;17.83;;;;;;;-144.47;100.00;61586.06;5036950;28;20033;-88
2022/01/12 07:04:58;;;;;;;25.08;17.10;;;;;;;-144.47;100.00;61586.06;4341899;28;10000690;-82
2022/01/12 07:07:24;;;;;;;28.77;16.67;;;;;;;-144.47;100.00;61586.06;5038343;28;20033;-82
2022/01/12 07:09:53;;;;;;;24.25;16.38;;;;;;;-144.47;100.00;61586.06;5029804;28;20037;-80
2022/01/12 07:12:21;;;;;;;23.92;16.90;;;;;;;-144.47;100.00;61586.06;5029626;28;20041;-81
2022/01/12 07:14:49;;;;;;;23.35;16.10;;;;;;;-144.47;100.00;61586.06;5036731;28;20095;-79
2022/01/12 07:17:15;;;;;;;26.08;17.02;;;;;;;-144.47;100.00;61586.06;5037944;28;20421;-80
2022/01/12 07:19:41;;;;;;;25.05;17.48;;;;;;;-144.47;100.00;61586.06;5039999;28;20129;-81
2022/01/12 07:22:07;;;;;;;23.58;16.42;;;;;;;-144.47;100.00;61586.06;5039104;28;20049;-81
2022/01/12 07:24:33;;;;;;;28.08;16.95;;;;;;;-144.47;100.00;61586.06;5041702;28;20036;-82
2022/01/12 07:26:58;;;;;;;28.30;16.67;;;;;;;-144.47;100.00;61586.06;5039343;28;20445;-81
2022/01/12 07:29:24;;;;;;;27.95;15.88;;;;;;;-144.47;100.00;61586.06;5029411;28;20096;-81
2022/01/12 07:31:49;;;;;;;22.73;15.90;;;;;;;-144.47;100.00;61586.06;5040153;28;20048;-82
2022/01/12 07:34:16;;;;;;;24.30;16.67;;;;;;;-144.47;100.00;61586.06;5038525;28;20095;-80
2022/01/12 07:36:42;;;;;;;21.15;16.10;;;;;;;-144.47;100.00;61586.06;5037886;28;20504;-80
2022/01/12 07:39:08;;;;;;;23.60;16.35;;;;;;;-144.47;100.00;61586.06;5041317;28;20044;-81
2022/01/12 07:41:34;;;;;;;25.45;16.65;;;;;;;-144.47;100.00;61586.06;5042634;28;20029;-81
2022/01/12 07:43:59;;;;;;;29.38;17.02;;;;;;;-144.47;100.00;61586.06;5039264;28;20036;-81
2022/01/12 07:46:25;;;;;;;28.58;16.88;;;;;;;-144.47;100.00;61586.06;5037980;28;20108;-80
2022/01/12 07:48:50;;;;;;;23.08;15.75;;;;;;;-144.47;100.00;61586.06;5039639;28;20353;-80
2022/01/12 07:51:16;;;;;;;27.35;16.40;;;;;;;-144.47;100.00;61586.06;5040892;28;20044;-80
2022/01/12 07:53:41;;;;;;;27.25;17.33;;;;;;;-144.47;100.00;61586.06;5036887;28;20032;-75
2022/01/12 07:56:07;;;;;;;27.35;17.20;;;;;;;-144.47;100.00;61586.06;5029723;28;20466;-75
2022/01/12 07:58:32;;;;;;;33.67;17.70;;;;;;;-144.47;100.00;61586.06;5030726;28;20033;-75
2022/01/12 08:00:58;;;;;;;28.70;17.20;;;;;;;-144.47;100.00;61586.06;5032551;28;20049;-75
2022/01/12 08:03:24;;;;;;;26.73;16.65;;;;;;;-144.47;100.00;61586.06;5033360;28;20049;-81
2022/01/12 08:05:50;;;;;;;36.50;18.70;;;;;;;-144.47;100.00;61586.06;5036066;28;20091;-81
2022/01/12 08:08:16;;;;;;;28.00;17.60;;;;;;;-144.47;100.00;61586.06;5036369;28;20443;-80
2022/01/12 08:10:42;;;;;;;24.15;17.10;;;;;;;-144.47;100.00;61586.06;5044625;28;20068;-80
2022/01/12 08:13:08;;;;;;;22.10;16.33;;;;;;;-144.47;100.00;61586.06;5025985;28;20083;-79
2022/01/12 08:15:33;;;;;;;22.15;16.40;;;;;;;-144.47;100.00;61586.06;5035397;28;20432;-79
2022/01/12 08:17:59;;;;;;;20.85;15.93;;;;;;;-144.47;100.00;61586.06;5040189;28;20090;-80
2022/01/12 08:20:28;;;;;;;27.15;16.25;;;;;;;-144.47;100.00;61586.06;5038300;28;20021;-77
2022/01/12 08:22:54;;;;;;;28.60;17.83;;;;;;;-144.47;100.00;61586.06;5034676;28;20041;-79
2022/01/12 08:25:19;;;;;;;24.00;16.30;;;;;;;-144.47;100.00;61586.06;5036856;28;20029;-78
2022/01/12 08:27:45;;;;;;;26.63;16.42;;;;;;;-144.47;100.00;61586.06;5015552;28;20032;-76
2022/01/12 08:30:16;;;;;;;22.95;16.85;;;;;;;-144.47;100.00;61586.06;5014822;28;20401;-77
2022/01/12 08:32:47;;;;;;;27.23;18.05;;;;;;;-144.47;100.00;61586.06;5016226;28;20498;-77
2022/01/12 08:35:13;;;;;;;26.42;16.45;;;;;;;-144.47;100.00;61586.06;5035859;28;20025;-77
2022/01/12 08:37:39;;;;;;;29.50;16.88;;;;;;;-144.47;100.00;61586.06;5034856;28;20132;-78
2022/01/12 08:40:05;;;;;;;21.35;15.82;;;;;;;-144.47;100.00;61586.06;5034383;28;20040;-74
2022/01/12 08:42:31;;;;;;;25.55;17.95;;;;;;;-144.47;100.00;61586.06;5034811;28;20473;-78
2022/01/12 08:44:59;;;;;;;24.75;17.73;;;;;;;-144.47;100.00;61586.06;5032583;28;20044;-77
2022/01/12 08:47:26;;;;;;;27.45;17.88;;;;;;;-144.47;100.00;61586.06;5033992;28;20196;-81
2022/01/12 08:49:51;;;;;;;26.42;18.20;;;;;;;-144.47;100.00;61586.06;5017209;28;20397;-77
2022/01/12 08:52:17;;;;;;;24.83;17.35;;;;;;;-144.47;100.00;61586.06;5036100;28;20045;-77
2022/01/12 08:54:43;;;;;;;31.83;19.48;;;;;;;-144.47;100.00;61586.06;5034089;28;20033;-78
2022/01/12 08:57:08;;;;;;;29.63;18.73;;;;;;;-144.47;100.00;61586.06;5039704;28;20068;-79
2022/01/12 08:59:34;;;;;;;32.90;18.45;;;;;;;-144.47;100.00;61586.06;5036484;28;20036;-80
2022/01/12 09:01:59;;;;;;;26.00;18.33;;;;;;;-144.47;100.00;61586.06;5019085;28;20124;-84
2022/01/12 09:04:27;;;;;;;26.20;18.92;;;;;;;-144.47;100.00;61586.06;5048057;28;20040;-86
2022/01/12 09:06:54;;;;;;;27.25;18.08;;;;;;;-144.47;100.00;61586.06;5056742;28;20029;-81
2022/01/12 09:09:22;;;;;;;23.17;17.88;;;;;;;-144.47;100.00;61586.06;5043049;28;20025;-83
2022/01/12 09:11:48;;;;;;;28.83;18.45;;;;;;;-144.47;100.00;61586.06;5052609;28;20120;-80
2022/01/12 09:14:15;;;;;;;26.05;17.45;;;;;;;-144.47;100.00;61586.06;5034448;28;20494;-80
2022/01/12 09:16:40;;;;;;;25.70;17.33;;;;;;;-144.47;100.00;61586.06;5035740;28;20477;-84
2022/01/12 09:19:06;;;;;;;26.75;18.23;;;;;;;-144.47;100.00;61586.06;5036689;28;20029;-79
2022/01/12 09:21:33;;;;;;;28.48;18.50;;;;;;;-144.47;100.00;61586.06;5034720;28;20112;-81
2022/01/12 09:23:58;;;;;;;25.90;18.40;;;;;;;-144.47;100.00;61586.06;5036663;28;20045;-81
2022/01/12 09:26:24;;;;;;;31.85;18.38;;;;;;;-144.47;100.00;61586.06;5043048;28;20037;-81
2022/01/12 09:28:50;;;;;;;29.33;19.35;;;;;;;-144.47;100.00;61586.06;5051946;28;20064;-82
2022/01/12 09:31:16;;;;;;;32.05;20.25;;;;;;;-144.47;100.00;61586.06;5059677;28;20097;-84
2022/01/12 09:33:42;;;;;;;26.92;18.88;;;;;;;-144.47;100.00;61586.06;5063937;28;20108;-79
2022/01/12 09:36:07;;;;;;;32.63;19.42;;;;;;;-144.47;100.00;61586.06;5056797;28;20034;-83
2022/01/12 09:38:33;;;;;;;27.45;19.00;;;;;;;-144.47;100.00;61586.06;5042101;28;20030;-80
2022/01/12 09:40:59;;;;;;;35.53;19.08;;;;;;;-144.47;100.00;61586.06;5041908;28;20037;-85
2022/01/12 09:43:28;;;;;;;29.45;18.45;;;;;;;-144.47;100.00;61586.06;5036166;28;20034;-87
2022/01/12 09:45:54;;;;;;;27.88;19.08;;;;;;;-144.47;100.00;61586.06;5035379;28;20033;-84
2022/01/12 09:48:23;;;;;;;26.00;18.50;;;;;;;-144.47;100.00;61586.06;5040613;28;20128;-83
2022/01/12 09:50:51;;;;;;;25.20;18.27;;;;;;;-144.47;100.00;61586.06;5043865;28;20466;-80
2022/01/12 09:53:17;;;;;;;30.30;18.05;;;;;;;-144.47;100.00;61586.06;5041153;28;20103;-76
2022/01/12 09:55:42;;;;;;;24.45;16.70;;;;;;;-144.47;100.00;61586.06;5041844;28;20465;-76
2022/01/12 09:58:08;;;;;;;24.50;17.38;;;;;;;-144.47;100.00;61586.06;5038205;28;20033;-77
2022/01/12 10:00:34;;;;;;;21.42;15.68;;;;;;;-144.47;100.00;61586.06;5030802;28;20041;-78
2022/01/12 10:03:09;;;;;;;22.73;16.17;;;;;;;-144.47;100.00;61586.06;5032863;28;20040;-76
2022/01/12 10:05:35;;;;;;;22.27;16.05;;;;;;;-144.47;100.00;61586.06;5036776;28;20030;-77
2022/01/12 10:08:16;;;;;;;23.05;16.23;;;;;;;-144.47;100.00;61586.06;5040071;28;20359;-77
2022/01/12 10:10:49;;;;;;;24.15;15.63;;;;;;;-144.47;100.00;61586.06;5037496;28;20385;-77
2022/01/12 10:13:25;;;;;;;19.77;15.68;;;;;;;-144.47;100.00;61586.06;5039031;28;20026;-77
2022/01/12 10:15:53;;;;;;;27.38;15.43;;;;;;;-144.47;100.00;61586.06;5043429;28;20025;-79
2022/01/12 10:18:22;;;;;;;24.23;15.98;;;;;;;-144.47;100.00;61586.06;5043345;28;20036;-77
2022/01/12 10:20:49;;;;;;;21.42;14.65;;;;;;;-144.47;100.00;61586.06;5032666;28;20453;-77
2022/01/12 10:23:20;;;;;;;21.45;15.82;;;;;;;-144.47;100.00;61586.06;5032340;28;20140;-77
2022/01/12 10:25:47;;;;;;;23.27;15.43;;;;;;;-144.47;100.00;61586.06;5033627;28;20533;-77
2022/01/12 10:28:19;;;;;;;21.92;15.68;;;;;;;-144.47;100.00;61586.06;5037697;28;20029;-78
2022/01/12 10:31:01;;;;;;;19.15;15.70;;;;;;;-144.47;100.00;61586.06;5042376;28;20029;-79
2022/01/12 10:33:31;;;;;;;20.15;15.15;;;;;;;-144.47;100.00;61586.06;5034890;28;20397;-78
2022/01/12 10:36:00;;;;;;;29.83;16.05;;;;;;;-144.47;100.00;61586.06;5044472;28;20035;-77
2022/01/12 10:38:27;;;;;;;26.33;16.42;;;;;;;-144.47;100.00;61586.06;5041631;28;20132;-77
2022/01/12 10:40:57;;;;;;;28.67;16.88;;;;;;;-144.47;100.00;61586.06;5044157;28;20095;-78
2022/01/12 10:43:41;;;;;;;24.33;16.85;;;;;;;-144.47;100.00;61586.06;5033319;28;20286;-76
2022/01/12 10:46:09;;;;;;;27.27;16.40;;;;;;;-144.47;100.00;61586.06;5037522;28;20041;-77
2022/01/12 10:48:47;;;;;;;23.33;17.30;;;;;;;-144.47;100.00;61586.06;5039752;28;20504;-78
2022/01/12 10:51:24;;;;;;;26.30;16.80;;;;;;;-144.47;100.00;61586.06;5034275;28;20087;-78
2022/01/12 10:53:51;;;;;;;22.05;16.77;;;;;;;-144.47;100.00;61586.06;5034107;28;20041;-77
2022/01/12 10:56:19;;;;;;;26.25;16.70;;;;;;;-144.47;100.00;61586.06;5036136;28;20036;-77
2022/01/12 10:58:47;;;;;;;21.35;15.82;;;;;;;-144.47;100.00;61586.06;5036228;28;20020;-78
2022/01/12 11:01:16;;;;;;;25.20;16.92;;;;;;;-144.47;100.00;61586.06;5030973;28;20059;-77
2022/01/12 11:03:42;;;;;;;22.40;16.08;;;;;;;-144.47;100.00;61586.06;5032012;28;20049;-76
2022/01/12 11:06:09;;;;;;;24.88;16.45;;;;;;;-144.47;100.00;61586.06;5036837;28;20034;-77
2022/01/12 11:08:36;;;;;;;26.08;15.93;;;;;;;-144.47;100.00;61586.06;5036694;28;20056;-77
2022/01/12 11:11:03;;;;;;;24.63;16.20;;;;;;;-144.47;100.00;61586.06;5027594;28;20037;-75
2022/01/12 11:13:29;;;;;;;21.60;16.73;;;;;;;-144.47;100.00;61586.06;5039203;28;20061;-76
2022/01/12 11:15:59;;;;;;;28.08;17.35;;;;;;;-144.47;100.00;61586.06;5046142;28;20032;-78
2022/01/12 11:18:29;;;;;;;24.90;16.23;;;;;;;-144.47;100.00;61586.06;4679581;28;10000266;-77
2022/01/12 11:21:10;;;;;;;23.25;15.70;;;;;;;-144.47;100.00;61586.06;5033705;28;20029;-76
2022/01/12 11:23:39;;;;;;;22.20;15.88;;;;;;;-144.47;100.00;61586.06;5036932;28;20045;-78
2022/01/12 11:26:18;;;;;;;23.13;15.48;;;;;;;-144.47;100.00;61586.06;5010749;28;20044;-77
2022/01/12 11:28:44;;;;;;;21.48;14.45;;;;;;;-144.47;100.00;61586.06;5017514;28;20034;-77
2022/01/12 11:31:15;;;;;;;21.95;15.35;;;;;;;-144.47;100.00;61586.06;5038228;28;20106;-76
2022/01/12 11:33:42;;;;;;;19.13;14.63;;;;;;;-144.47;100.00;61586.06;5036447;28;20541;-77
2022/01/12 11:36:23;;;;;;;20.65;13.98;;;;;;;-144.47;100.00;61586.06;5027240;28;20068;-77
2022/01/12 11:39:03;;;;;;;21.67;14.70;;;;;;;-144.47;100.00;61586.06;5019224;28;20033;-78
2022/01/12 11:41:31;;;;;;;21.45;15.63;;;;;;;-144.47;100.00;61586.06;5031902;28;20057;-76
2022/01/12 11:44:10;;;;;;;17.80;14.48;;;;;;;-144.47;100.00;61586.06;5027892;28;20033;-79
2022/01/12 11:46:46;;;;;;;25.48;14.95;;;;;;;-144.47;100.00;61586.06;5039482;28;20392;-78
2022/01/12 11:49:28;;;;;;;22.13;14.40;;;;;;;-144.47;100.00;61586.06;5027911;28;20454;-78
2022/01/12 11:51:54;;;;;;;19.85;14.65;;;;;;;-144.47;100.00;61586.06;5038811;28;20128;-78
2022/01/12 11:54:31;;;;;;;22.90;15.25;;;;;;;-144.47;100.00;61586.06;5038137;28;20520;-78
2022/01/12 11:57:05;;;;;;;22.90;15.45;;;;;;;-144.47;100.00;61586.06;5032427;28;20111;-79
2022/01/12 11:59:56;;;;;;;24.40;16.13;;;;;;;-144.47;100.00;61586.06;5035071;28;20040;-77
2022/01/12 12:02:46;;;;;;;20.60;15.63;;;;;;;-144.47;100.00;61586.06;5027657;28;20041;-79
2022/01/12 12:05:14;;;;;;;22.27;16.30;;;;;;;-144.47;100.00;61586.06;5034597;28;20107;-79
2022/01/12 12:07:52;;;;;;;19.20;14.43;;;;;;;-144.47;100.00;61586.06;5040564;28;20037;-78
2022/01/12 12:10:26;;;;;;;24.98;16.05;;;;;;;-144.47;100.00;61586.06;4689959;28;10000826;-81
2022/01/12 12:12:53;;;;;;;24.05;15.45;;;;;;;-144.47;100.00;61586.06;5040526;28;20041;-81
2022/01/12 12:15:20;;;;;;;22.25;16.42;;;;;;;-144.47;100.00;61586.06;5045080;28;20025;-81
2022/01/12 12:17:47;;;;;;;21.75;16.60;;;;;;;-144.47;100.00;61586.06;5046700;28;20025;-82
2022/01/12 12:20:15;;;;;;;27.50;18.25;;;;;;;-144.47;100.00;61586.06;5058947;28;20041;-78
2022/01/12 12:22:44;;;;;;;26.77;16.48;;;;;;;-144.47;100.00;61586.06;5034659;28;20045;-83
2022/01/12 12:25:15;;;;;;;25.40;16.02;;;;;;;-144.47;100.00;61586.06;5033003;28;20054;-87